TCA weather

Tennant Creek Airport
Tennant Creek, Northern Territory, Australia

Public forecast

Using degrees Celsius for public forecast. Weather courtesy of forecast.io.

Current aviation weather report (METAR) for Tennant Creek Airport

Retrieved 2019/10/18 07:00 UTC (13 minutes ago):

YTNK 180700Z AUTO 12013KT 9999 // NCD 37/M01 Q1013

Aviation forecast (TAF) for Tennant Creek Airport

Retrieved 2019/10/18 08:03 UTC (0 seconds ago):

TAF TAF YTNK 180607Z 1808/1820 10014KT CAVOK